createdAt,value
2019-04-21T00:02:09.264Z,21.16
2019-04-21T00:04:50.721Z,21.11
2019-04-21T00:07:27.721Z,21.08
2019-04-21T00:10:03.876Z,21.09
2019-04-21T00:12:31.141Z,21.12
2019-04-21T00:14:57.917Z,21.12
2019-04-21T00:17:21.725Z,21.17
2019-04-21T00:20:05.512Z,21.18
2019-04-21T00:22:34.219Z,21.24
2019-04-21T00:25:11.019Z,21.30
2019-04-21T00:27:44.238Z,21.28
2019-04-21T00:30:15.778Z,21.27
2019-04-21T00:32:41.753Z,21.29
2019-04-21T00:35:11.275Z,21.29
2019-04-21T00:37:53.441Z,21.26
2019-04-21T00:40:35.201Z,21.18
2019-04-21T00:42:59.896Z,21.10
2019-04-21T00:45:31.396Z,21.01
2019-04-21T00:48:14.058Z,20.96
2019-04-21T00:50:51.774Z,20.98
2019-04-21T00:53:37.107Z,20.99
2019-04-21T00:56:11.906Z,20.99
2019-04-21T00:58:40.980Z,21.00
2019-04-21T01:01:12.164Z,21.00
2019-04-21T01:03:43.461Z,21.04
2019-04-21T01:06:13.066Z,21.07
2019-04-21T01:08:44.111Z,21.00
2019-04-21T01:11:15.635Z,21.01
2019-04-21T01:13:49.798Z,20.98
2019-04-21T01:16:22.294Z,20.99
2019-04-21T01:18:48.328Z,20.96
2019-04-21T01:20:57.290Z,20.93
2019-04-21T01:23:27.545Z,20.83
2019-04-21T01:26:13.712Z,20.81
2019-04-21T01:28:49.572Z,20.80
2019-04-21T01:31:18.494Z,20.85
2019-04-21T01:33:56.189Z,20.82
2019-04-21T01:36:26.106Z,20.84
2019-04-21T01:39:05.292Z,20.86
2019-04-21T01:41:57.579Z,20.84
2019-04-21T01:44:46.175Z,20.83
2019-04-21T01:47:14.501Z,20.77
2019-04-21T01:49:41.649Z,20.70
2019-04-21T01:52:24.605Z,20.63
2019-04-21T01:55:25.169Z,20.58
2019-04-21T01:58:22.063Z,20.51
2019-04-21T02:00:56.868Z,20.45
2019-04-21T02:03:47.005Z,20.39
2019-04-21T02:06:27.583Z,20.35
2019-04-21T02:08:41.784Z,20.29
2019-04-21T02:11:18.885Z,20.29
2019-04-21T02:13:53.481Z,20.26
2019-04-21T02:16:18.584Z,20.19
2019-04-21T02:18:50.993Z,20.17
2019-04-21T02:21:15.598Z,20.11
2019-04-21T02:26:37.530Z,19.98
2019-04-21T02:29:00.181Z,19.91
2019-04-21T02:34:25.193Z,19.75
2019-04-21T02:41:51.742Z,19.56
2019-04-21T02:44:15.957Z,19.51
2019-04-21T02:49:22.823Z,19.38
2019-04-21T02:54:42.079Z,19.28
2019-04-21T02:56:57.250Z,19.20
2019-04-21T03:02:40.885Z,19.11
2019-04-21T03:05:28.825Z,19.06
2019-04-21T03:07:54.942Z,19.02
2019-04-21T03:10:26.687Z,18.94
2019-04-21T03:12:53.048Z,18.91
2019-04-21T03:15:29.197Z,18.87
2019-04-21T03:18:00.330Z,18.83
2019-04-21T03:23:00.174Z,18.74
2019-04-21T03:25:45.355Z,18.72
2019-04-21T03:28:16.292Z,18.68
2019-04-21T03:30:59.585Z,18.67
2019-04-21T03:38:13.778Z,18.52
2019-04-21T03:40:36.223Z,18.48
2019-04-21T03:48:09.740Z,18.38
2019-04-21T03:50:39.776Z,18.34
2019-04-21T03:53:09.652Z,18.30
2019-04-21T03:58:45.049Z,18.22
2019-04-21T04:01:05.538Z,18.21
2019-04-21T04:06:25.784Z,18.09
2019-04-21T04:11:44.196Z,17.95
2019-04-21T04:14:15.299Z,17.92
2019-04-21T04:16:47.441Z,17.89
2019-04-21T04:19:11.964Z,17.86
2019-04-21T04:21:48.015Z,17.83
2019-04-21T04:24:13.317Z,17.82
2019-04-21T04:29:20.342Z,17.74
2019-04-21T04:32:08.024Z,17.74
2019-04-21T04:37:02.036Z,17.69
2019-04-21T04:39:48.502Z,17.63
2019-04-21T04:45:05.836Z,17.62
2019-04-21T04:49:51.681Z,17.53
2019-04-21T04:57:33.834Z,17.46
2019-04-21T05:02:33.873Z,17.44
2019-04-21T05:05:19.405Z,17.46
2019-04-21T05:07:42.873Z,17.48
2019-04-21T05:09:59.749Z,17.48
2019-04-21T05:12:38.816Z,17.34
2019-04-21T05:15:09.587Z,17.36
2019-04-21T05:20:17.011Z,17.35
2019-04-21T05:22:47.386Z,17.39
2019-04-21T05:24:58.422Z,17.41
2019-04-21T05:27:49.709Z,17.42
2019-04-21T05:30:33.871Z,17.44
2019-04-21T05:33:19.034Z,17.50
2019-04-21T05:36:11.497Z,17.51
2019-04-21T05:38:53.105Z,17.53
2019-04-21T05:41:18.193Z,17.58
2019-04-21T05:43:56.442Z,17.62
2019-04-21T05:46:35.565Z,17.67
2019-04-21T05:49:05.825Z,17.73
2019-04-21T05:51:30.583Z,17.76
2019-04-21T05:54:19.324Z,17.84
2019-04-21T05:56:36.525Z,17.89
2019-04-21T05:59:08.956Z,17.93
2019-04-21T06:01:50.267Z,17.97
2019-04-21T06:04:17.110Z,18.07
2019-04-21T06:06:48.100Z,18.16
2019-04-21T06:09:14.527Z,18.23
2019-04-21T06:11:45.955Z,18.26
2019-04-21T06:14:14.465Z,18.33
2019-04-21T06:16:47.982Z,18.39
2019-04-21T06:19:22.321Z,18.46
2019-04-21T06:21:45.440Z,18.50
2019-04-21T06:24:17.344Z,18.58
2019-04-21T06:27:02.935Z,18.65
2019-04-21T06:29:23.436Z,18.72
2019-04-21T06:34:27.842Z,18.74
2019-04-21T06:37:36.088Z,18.75
2019-04-21T06:42:13.531Z,18.78
2019-04-21T06:44:54.108Z,18.75
2019-04-21T06:47:26.566Z,18.78
2019-04-21T06:49:50.834Z,18.82
2019-04-21T06:52:42.392Z,18.82
2019-04-21T06:54:57.238Z,18.82
2019-04-21T06:57:26.117Z,18.91
2019-04-21T06:59:50.008Z,19.01
2019-04-21T07:02:36.147Z,19.06
2019-04-21T07:04:57.602Z,19.12
2019-04-21T07:07:25.102Z,19.22
2019-04-21T07:12:31.726Z,19.31
2019-04-21T07:15:04.109Z,19.35
2019-04-21T07:20:07.280Z,19.35
2019-04-21T07:22:40.153Z,19.38
2019-04-21T07:25:09.151Z,19.39
2019-04-21T07:27:43.046Z,19.43
2019-04-21T07:30:26.626Z,19.48
2019-04-21T07:32:41.178Z,19.54
2019-04-21T07:35:09.994Z,19.60
2019-04-21T07:37:46.190Z,19.69
2019-04-21T07:40:05.183Z,19.76
2019-04-21T07:42:39.999Z,19.80
2019-04-21T07:45:08.722Z,19.89
2019-04-21T07:47:56.546Z,19.87
2019-04-21T07:50:35.085Z,19.90
2019-04-21T07:53:16.432Z,19.94
2019-04-21T07:58:07.322Z,20.01
2019-04-21T08:03:14.176Z,20.05
2019-04-21T08:05:47.138Z,20.08
2019-04-21T08:08:14.215Z,20.17
2019-04-21T08:10:45.303Z,20.18
2019-04-21T08:13:28.942Z,20.21
2019-04-21T08:16:07.382Z,20.21
2019-04-21T08:18:20.419Z,20.23
2019-04-21T08:20:47.843Z,20.24
2019-04-21T08:23:29.703Z,20.28
2019-04-21T08:25:58.908Z,20.34
2019-04-21T08:28:26.498Z,20.33
2019-04-21T08:30:54.346Z,20.32
2019-04-21T08:33:38.409Z,20.33
2019-04-21T08:36:13.105Z,20.35
2019-04-21T08:38:38.780Z,20.41
2019-04-21T08:41:03.594Z,20.42
2019-04-21T08:43:42.648Z,20.45
2019-04-21T08:46:05.395Z,20.48
2019-04-21T08:48:34.978Z,20.54
2019-04-21T08:51:14.830Z,20.55
2019-04-21T08:53:41.388Z,20.55
2019-04-21T08:56:43.517Z,20.62
2019-04-21T08:59:31.360Z,20.58
2019-04-21T09:02:01.370Z,20.65
2019-04-21T09:05:35.670Z,20.86
2019-04-21T09:08:06.761Z,20.94
2019-04-21T09:10:34.757Z,21.04
2019-04-21T09:13:04.541Z,21.11
2019-04-21T09:15:34.936Z,21.18
2019-04-21T09:18:08.823Z,21.28
2019-04-21T09:20:48.766Z,21.35
2019-04-21T09:23:18.112Z,21.45
2019-04-21T09:25:47.318Z,21.57
2019-04-21T09:28:12.609Z,21.62
2019-04-21T09:30:26.484Z,21.72
2019-04-21T09:32:58.214Z,21.79
2019-04-21T09:35:29.220Z,21.83
2019-04-21T09:38:07.786Z,22.00
2019-04-21T09:40:36.044Z,22.08
2019-04-21T09:43:07.404Z,22.20
2019-04-21T09:45:32.932Z,22.31
2019-04-21T09:48:10.118Z,22.45
2019-04-21T09:50:34.963Z,22.51
2019-04-21T09:53:14.597Z,22.62
2019-04-21T09:55:43.981Z,22.75
2019-04-21T09:58:16.725Z,22.86
2019-04-21T10:00:51.060Z,23.02
2019-04-21T10:03:13.934Z,23.15
2019-04-21T10:05:41.830Z,23.22
2019-04-21T10:08:12.574Z,23.36
2019-04-21T10:10:42.467Z,23.52
2019-04-21T10:13:15.157Z,23.65
2019-04-21T10:16:00.793Z,23.82
2019-04-21T10:18:31.689Z,23.98
2019-04-21T10:21:01.251Z,24.14
2019-04-21T10:23:31.599Z,24.28
2019-04-21T10:26:00.979Z,24.45
2019-04-21T10:28:30.988Z,24.56
2019-04-21T10:31:00.865Z,24.72
2019-04-21T10:33:34.498Z,24.85
2019-04-21T10:36:11.066Z,25.01
2019-04-21T10:38:46.406Z,25.25
2019-04-21T10:41:12.279Z,25.41
2019-04-21T10:43:45.206Z,25.53
2019-04-21T10:46:17.010Z,25.64
2019-04-21T10:48:46.403Z,25.70
2019-04-21T10:51:15.497Z,25.86
2019-04-21T10:53:50.829Z,26.00
2019-04-21T10:56:28.772Z,26.20
2019-04-21T10:58:54.133Z,26.40
2019-04-21T11:01:29.404Z,26.57
2019-04-21T11:04:23.667Z,26.77
2019-04-21T11:06:50.600Z,26.97
2019-04-21T11:09:21.953Z,27.17
2019-04-21T11:11:53.519Z,27.25
2019-04-21T11:14:23.135Z,27.24
2019-04-21T11:16:53.065Z,27.43
2019-04-21T11:19:24.252Z,27.60
2019-04-21T11:21:54.584Z,27.75
2019-04-21T11:24:25.157Z,27.85
2019-04-21T11:26:54.311Z,27.99
2019-04-21T11:29:23.453Z,28.23
2019-04-21T11:31:52.832Z,28.35
2019-04-21T11:34:23.087Z,28.55
2019-04-21T11:36:52.300Z,28.70
2019-04-21T11:39:41.014Z,28.92
2019-04-21T11:42:05.943Z,29.05
2019-04-21T11:44:37.221Z,29.31
2019-04-21T11:47:10.269Z,29.56
2019-04-21T11:49:39.464Z,29.85
2019-04-21T11:52:09.215Z,30.10
2019-04-21T11:54:38.275Z,30.25
2019-04-21T11:57:14.199Z,30.33
2019-04-21T11:59:39.585Z,30.50
2019-04-21T12:02:09.744Z,30.71
2019-04-21T12:04:39.279Z,30.86
2019-04-21T12:07:09.198Z,30.83
2019-04-21T12:09:39.508Z,30.99
2019-04-21T12:12:09.616Z,31.12
2019-04-21T12:14:39.734Z,31.30
2019-04-21T12:17:10.002Z,31.37
2019-04-21T12:19:39.127Z,31.31
2019-04-21T12:22:18.175Z,31.41
2019-04-21T12:24:40.226Z,31.65
2019-04-21T12:27:09.871Z,31.82
2019-04-21T12:29:39.889Z,31.95
2019-04-21T12:32:28.362Z,32.20
2019-04-21T12:34:57.857Z,32.45
2019-04-21T12:37:26.920Z,32.45
2019-04-21T12:39:56.831Z,32.56
2019-04-21T12:42:26.970Z,32.78
2019-04-21T12:44:57.247Z,32.83
2019-04-21T12:47:27.871Z,32.93
2019-04-21T12:49:59.021Z,33.17
2019-04-21T12:52:29.406Z,33.43
2019-04-21T12:54:59.686Z,33.58
2019-04-21T12:57:31.495Z,33.67
2019-04-21T13:00:00.507Z,33.79
2019-04-21T13:02:31.734Z,33.86
2019-04-21T13:05:02.118Z,34.08
2019-04-21T13:07:37.397Z,34.32
2019-04-21T13:10:08.544Z,34.59
2019-04-21T13:12:43.883Z,34.67
2019-04-21T13:15:13.802Z,34.79
2019-04-21T13:17:47.245Z,34.95
2019-04-21T13:20:19.207Z,34.92
2019-04-21T13:22:48.346Z,34.97
2019-04-21T13:25:18.121Z,35.12
2019-04-21T13:27:47.315Z,35.44
2019-04-21T13:30:16.530Z,35.63
2019-04-21T13:32:47.133Z,35.81
2019-04-21T13:35:17.109Z,35.90
2019-04-21T13:37:47.917Z,36.16
2019-04-21T13:40:48.651Z,36.35
2019-04-21T13:43:06.094Z,36.34
2019-04-21T13:45:34.334Z,36.54
2019-04-21T13:48:04.557Z,36.20
2019-04-21T13:50:35.303Z,36.25
2019-04-21T13:53:05.023Z,36.28
2019-04-21T13:55:36.769Z,36.62
2019-04-21T13:58:06.338Z,36.77
2019-04-21T14:00:35.936Z,37.11
2019-04-21T14:03:05.113Z,37.15
2019-04-21T14:05:34.171Z,36.83
2019-04-21T14:08:05.191Z,36.70
2019-04-21T14:10:35.584Z,36.92
2019-04-21T14:13:04.764Z,36.93
2019-04-21T14:15:33.787Z,37.01
2019-04-21T14:18:06.866Z,37.11
2019-04-21T14:20:37.441Z,37.17
2019-04-21T14:23:17.182Z,37.36
2019-04-21T14:25:37.598Z,37.49
2019-04-21T14:28:08.078Z,37.63
2019-04-21T14:30:38.615Z,37.61
2019-04-21T14:33:07.982Z,37.79
2019-04-21T14:35:38.832Z,37.85
2019-04-21T14:38:09.077Z,37.58
2019-04-21T14:40:38.798Z,37.06
2019-04-21T14:43:08.324Z,37.01
2019-04-21T14:45:57.321Z,36.98
2019-04-21T14:49:03.716Z,37.15
2019-04-21T14:51:43.127Z,36.86
2019-04-21T14:54:31.025Z,36.74
2019-04-21T14:57:00.939Z,37.31
2019-04-21T14:59:31.101Z,37.40
2019-04-21T15:02:00.230Z,37.54
2019-04-21T15:04:29.368Z,37.52
2019-04-21T15:06:59.278Z,37.80
2019-04-21T15:09:29.357Z,38.00
2019-04-21T15:11:58.565Z,38.09
2019-04-21T15:14:28.018Z,38.14
2019-04-21T15:16:57.069Z,38.05
2019-04-21T15:19:27.002Z,37.60
2019-04-21T15:21:56.736Z,37.83
2019-04-21T15:24:26.619Z,37.80
2019-04-21T15:26:56.904Z,37.92
2019-04-21T15:29:26.772Z,37.88
2019-04-21T15:31:56.835Z,37.45
2019-04-21T15:34:27.393Z,37.25
2019-04-21T15:36:57.859Z,37.08
2019-04-21T15:39:27.917Z,37.19
2019-04-21T15:41:57.111Z,37.02
2019-04-21T15:44:27.108Z,37.03
2019-04-21T15:46:56.188Z,36.67
2019-04-21T15:49:32.913Z,36.90
2019-04-21T15:52:00.095Z,37.02
2019-04-21T15:54:29.237Z,36.91
2019-04-21T15:57:08.974Z,36.54
2019-04-21T15:59:53.264Z,36.45
2019-04-21T16:02:38.380Z,36.07
2019-04-21T16:05:08.686Z,36.21
2019-04-21T16:07:38.085Z,36.12
2019-04-21T16:10:10.608Z,35.86
2019-04-21T16:12:40.176Z,35.71
2019-04-21T16:15:10.415Z,35.46
2019-04-21T16:17:39.561Z,35.35
2019-04-21T16:20:10.150Z,35.24
2019-04-21T16:22:40.120Z,35.21
2019-04-21T16:25:10.657Z,34.64
2019-04-21T16:27:41.372Z,34.09
2019-04-21T16:30:12.057Z,33.91
2019-04-21T16:32:42.007Z,33.78
2019-04-21T16:35:14.379Z,33.80
2019-04-21T16:37:42.034Z,33.78
2019-04-21T16:40:11.931Z,33.76
2019-04-21T16:42:42.442Z,33.65
2019-04-21T16:45:13.088Z,33.50
2019-04-21T16:51:13.276Z,33.30
2019-04-21T16:53:50.282Z,32.98
2019-04-21T16:56:27.156Z,32.96
2019-04-21T16:59:00.900Z,32.91
2019-04-21T17:01:31.743Z,32.82
2019-04-21T17:04:02.340Z,32.70
2019-04-21T17:06:33.220Z,32.51
2019-04-21T17:09:03.016Z,32.17
2019-04-21T17:11:35.361Z,31.76
2019-04-21T17:14:34.607Z,31.48
2019-04-21T17:17:08.749Z,31.32
2019-04-21T17:19:24.144Z,31.27
2019-04-21T17:21:49.923Z,31.18
2019-04-21T17:24:42.333Z,31.08
2019-04-21T17:27:15.380Z,30.97
2019-04-21T17:29:54.695Z,30.80
2019-04-21T17:32:31.391Z,30.64
2019-04-21T17:34:56.247Z,30.50
2019-04-21T17:37:27.293Z,30.39
2019-04-21T17:39:58.760Z,30.29
2019-04-21T17:42:40.566Z,30.18
2019-04-21T17:45:03.616Z,30.02
2019-04-21T17:47:46.829Z,29.76
2019-04-21T17:50:31.643Z,29.54
2019-04-21T17:53:14.920Z,29.35
2019-04-21T17:56:05.083Z,29.14
2019-04-21T17:58:34.172Z,29.01
2019-04-21T18:01:20.858Z,28.89
2019-04-21T18:04:05.828Z,28.78
2019-04-21T18:06:36.319Z,28.68
2019-04-21T18:09:21.868Z,28.58
2019-04-21T18:11:51.125Z,28.46
2019-04-21T18:14:15.934Z,28.38
2019-04-21T18:16:48.653Z,28.34
2019-04-21T18:19:19.406Z,28.25
2019-04-21T18:22:07.030Z,28.13
2019-04-21T18:24:48.957Z,28.08
2019-04-21T18:27:13.626Z,28.01
2019-04-21T18:29:44.322Z,27.96
2019-04-21T18:32:17.616Z,27.91
2019-04-21T18:35:05.905Z,27.84
2019-04-21T18:38:13.284Z,27.79
2019-04-21T18:40:38.692Z,27.74
2019-04-21T18:43:50.039Z,27.70
2019-04-21T18:46:26.608Z,27.62
2019-04-21T18:48:51.439Z,27.64
2019-04-21T18:51:32.989Z,27.61
2019-04-21T18:54:19.367Z,27.57
2019-04-21T18:56:27.559Z,27.56
2019-04-21T18:58:58.339Z,27.53
2019-04-21T19:01:31.435Z,27.52
2019-04-21T19:04:00.307Z,27.56
2019-04-21T19:06:47.010Z,27.49
2019-04-21T19:09:14.955Z,27.43
2019-04-21T19:11:57.616Z,27.36
2019-04-21T19:14:32.083Z,27.35
2019-04-21T19:17:29.139Z,27.34
2019-04-21T19:22:06.286Z,27.08
2019-04-21T19:24:33.273Z,26.97
2019-04-21T19:27:11.746Z,26.83
2019-04-21T19:29:57.217Z,26.73
2019-04-21T19:32:37.680Z,26.64
2019-04-21T19:34:40.095Z,26.55
2019-04-21T19:37:14.432Z,26.46
2019-04-21T19:39:58.946Z,26.41
2019-04-21T19:42:25.631Z,26.33
2019-04-21T19:45:05.278Z,26.30
2019-04-21T19:47:41.101Z,26.26
2019-04-21T19:50:11.181Z,26.22
2019-04-21T19:52:38.064Z,26.16
2019-04-21T19:55:07.035Z,26.15
2019-04-21T19:57:39.160Z,26.17
2019-04-21T20:00:12.089Z,26.14
2019-04-21T20:02:45.008Z,26.14
2019-04-21T20:05:36.150Z,26.06
2019-04-21T20:08:17.599Z,26.01
2019-04-21T20:11:00.629Z,25.96
2019-04-21T20:13:40.558Z,25.90
2019-04-21T20:16:03.924Z,25.87
2019-04-21T20:18:26.127Z,25.84
2019-04-21T20:20:48.228Z,25.79
2019-04-21T20:23:26.127Z,25.75
2019-04-21T20:26:01.179Z,25.70
2019-04-21T20:28:42.717Z,25.59
2019-04-21T20:31:20.417Z,25.52
2019-04-21T20:33:53.850Z,25.41
2019-04-21T20:36:29.624Z,25.35
2019-04-21T20:38:47.034Z,25.33
2019-04-21T20:41:25.726Z,25.31
2019-04-21T20:44:03.874Z,25.28
2019-04-21T20:46:31.041Z,25.26
2019-04-21T20:49:09.763Z,25.17
2019-04-21T20:51:42.541Z,25.05
2019-04-21T20:54:15.802Z,25.03
2019-04-21T20:56:49.727Z,24.96
2019-04-21T20:59:19.410Z,24.99
2019-04-21T21:01:49.008Z,24.92
2019-04-21T21:04:21.652Z,24.91
2019-04-21T21:07:06.767Z,24.86
2019-04-21T21:09:33.794Z,24.84
2019-04-21T21:12:19.679Z,24.86
2019-04-21T21:14:39.061Z,24.81
2019-04-21T21:17:18.294Z,24.78
2019-04-21T21:19:45.696Z,24.75
2019-04-21T21:22:10.968Z,24.69
2019-04-21T21:24:53.625Z,24.61
2019-04-21T21:27:19.615Z,24.54
2019-04-21T21:29:56.455Z,24.49
2019-04-21T21:32:42.797Z,24.49
2019-04-21T21:35:08.030Z,24.42
2019-04-21T21:37:36.893Z,24.40
2019-04-21T21:40:11.418Z,24.39
2019-04-21T21:45:04.874Z,24.36
2019-04-21T21:47:48.592Z,24.28
2019-04-21T21:50:18.314Z,24.23
2019-04-21T21:52:52.459Z,24.20
2019-04-21T21:55:13.837Z,24.14
2019-04-21T21:57:48.686Z,24.11
2019-04-21T22:00:17.123Z,24.08
2019-04-21T22:02:51.703Z,23.99
2019-04-21T22:05:29.988Z,23.94
2019-04-21T22:07:58.434Z,23.93
2019-04-21T22:10:31.421Z,23.87
2019-04-21T22:13:13.859Z,23.87
2019-04-21T22:15:39.670Z,23.84
2019-04-21T22:18:28.818Z,23.79
2019-04-21T22:20:55.197Z,23.77
2019-04-21T22:23:24.145Z,23.71
2019-04-21T22:25:45.376Z,23.73
2019-04-21T22:28:15.736Z,23.65
2019-04-21T22:30:51.860Z,23.56
2019-04-21T22:33:23.441Z,23.49
2019-04-21T22:36:05.688Z,23.47
2019-04-21T22:38:50.937Z,23.46
2019-04-21T22:41:28.169Z,23.45
2019-04-21T22:43:54.223Z,23.40
2019-04-21T22:46:26.325Z,23.34
2019-04-21T22:49:05.846Z,23.26
2019-04-21T22:51:38.362Z,23.17
2019-04-21T22:54:12.769Z,23.12
2019-04-21T22:56:57.000Z,23.07
2019-04-21T22:59:20.980Z,22.99
2019-04-21T23:01:51.842Z,22.95
2019-04-21T23:04:20.972Z,22.97
2019-04-21T23:06:56.745Z,22.95
2019-04-21T23:09:22.565Z,22.92
2019-04-21T23:11:56.071Z,22.91
2019-04-21T23:14:25.767Z,22.90
2019-04-21T23:17:21.226Z,22.88
2019-04-21T23:19:44.920Z,22.85
2019-04-21T23:22:24.487Z,22.82
2019-04-21T23:24:57.326Z,22.79
2019-04-21T23:27:20.523Z,22.75
2019-04-21T23:29:58.853Z,22.68
2019-04-21T23:32:23.840Z,22.59
2019-04-21T23:34:44.183Z,22.55
2019-04-21T23:37:21.518Z,22.55
2019-04-21T23:39:54.657Z,22.53
2019-04-21T23:42:28.603Z,22.50
2019-04-21T23:44:56.123Z,22.51
2019-04-21T23:47:36.841Z,22.48
2019-04-21T23:50:00.101Z,22.43
2019-04-21T23:52:25.985Z,22.40
2019-04-21T23:54:55.597Z,22.33
2019-04-21T23:57:30.512Z,22.23
2019-04-21T23:59:58.446Z,22.10
